createdAt,value
2019-06-26T00:10:25.845Z,31.23
2019-06-26T00:13:00.522Z,31.32
2019-06-26T00:15:34.828Z,31.42
2019-06-26T00:18:08.917Z,31.44
2019-06-26T00:20:43.109Z,31.43
2019-06-26T00:23:20.208Z,31.45
2019-06-26T00:25:54.799Z,31.46
2019-06-26T00:28:31.160Z,31.47
2019-06-26T00:31:06.125Z,31.49
2019-06-26T00:33:41.045Z,31.48
2019-06-26T00:36:17.060Z,31.48
2019-06-26T00:38:51.611Z,31.52
2019-06-26T00:41:25.979Z,31.55
2019-06-26T00:44:00.269Z,31.59
2019-06-26T00:46:34.910Z,31.67
2019-06-26T00:49:09.604Z,31.70
2019-06-26T00:51:44.030Z,31.68
2019-06-26T00:54:18.432Z,31.70
2019-06-26T00:56:52.726Z,31.71
2019-06-26T00:59:26.883Z,31.71
2019-06-26T01:02:01.168Z,31.66
2019-06-26T01:04:39.316Z,31.61
2019-06-26T01:07:15.472Z,31.62
2019-06-26T01:09:50.923Z,31.62
2019-06-26T01:12:25.129Z,31.61
2019-06-26T01:15:00.181Z,31.67
2019-06-26T01:17:35.240Z,31.70
2019-06-26T01:20:10.527Z,31.65
2019-06-26T01:22:44.788Z,31.70
2019-06-26T01:25:20.248Z,31.75
2019-06-26T01:27:56.457Z,31.71
2019-06-26T01:30:30.995Z,31.78
2019-06-26T01:33:05.301Z,31.82
2019-06-26T01:35:39.742Z,31.85
2019-06-26T01:38:14.763Z,31.85
2019-06-26T01:40:49.753Z,31.86
2019-06-26T01:43:24.334Z,31.92
2019-06-26T01:45:58.697Z,31.88
2019-06-26T01:48:32.956Z,31.94
2019-06-26T01:51:08.008Z,31.94
2019-06-26T01:53:43.036Z,31.94
2019-06-26T01:56:17.639Z,31.98
2019-06-26T01:58:52.185Z,31.90
2019-06-26T02:01:26.271Z,31.95
2019-06-26T02:04:01.840Z,31.91
2019-06-26T02:06:36.380Z,31.90
2019-06-26T02:09:11.514Z,31.83
2019-06-26T02:11:46.947Z,31.79
2019-06-26T02:14:31.174Z,31.78
2019-06-26T02:16:59.179Z,31.73
2019-06-26T02:19:34.201Z,31.68
2019-06-26T02:22:09.362Z,31.67
2019-06-26T02:24:44.816Z,31.65
2019-06-26T02:27:20.347Z,31.70
2019-06-26T02:29:55.555Z,31.67
2019-06-26T02:32:31.339Z,31.62
2019-06-26T02:35:09.676Z,31.61
2019-06-26T02:37:44.453Z,31.54
2019-06-26T02:40:21.772Z,31.52
2019-06-26T02:42:58.677Z,31.54
2019-06-26T02:45:37.269Z,31.50
2019-06-26T02:48:12.399Z,31.50
2019-06-26T02:50:47.397Z,31.42
2019-06-26T02:53:22.589Z,31.46
2019-06-26T02:55:57.339Z,31.44
2019-06-26T02:58:33.028Z,31.43
2019-06-26T03:01:07.920Z,31.44
2019-06-26T03:03:43.306Z,31.44
2019-06-26T03:06:18.186Z,31.42
2019-06-26T03:08:54.570Z,31.43
2019-06-26T03:11:31.203Z,31.39
2019-06-26T03:14:07.630Z,31.41
2019-06-26T03:16:42.771Z,31.47
2019-06-26T03:19:17.722Z,31.53
2019-06-26T03:21:54.502Z,31.59
2019-06-26T03:24:29.414Z,31.64
2019-06-26T03:27:04.593Z,31.64
2019-06-26T03:29:41.502Z,31.63
2019-06-26T03:32:16.390Z,31.63
2019-06-26T03:34:52.147Z,31.69
2019-06-26T03:37:29.985Z,31.71
2019-06-26T03:40:05.660Z,31.73
2019-06-26T03:42:41.040Z,31.65
2019-06-26T03:45:25.634Z,31.83
2019-06-26T03:47:55.732Z,31.91
2019-06-26T03:50:33.465Z,31.87
2019-06-26T03:53:08.686Z,31.83
2019-06-26T03:55:45.744Z,31.92
2019-06-26T03:58:20.865Z,31.88
2019-06-26T04:00:58.271Z,31.78
2019-06-26T04:03:33.423Z,31.79
2019-06-26T04:06:09.222Z,31.77
2019-06-26T04:08:46.758Z,31.66
2019-06-26T04:11:22.287Z,31.58
2019-06-26T04:13:57.918Z,31.56
2019-06-26T04:16:33.376Z,31.67
2019-06-26T04:19:08.759Z,31.66
2019-06-26T04:21:42.820Z,31.67
2019-06-26T04:24:18.082Z,31.62
2019-06-26T04:26:55.622Z,31.62
2019-06-26T04:29:31.911Z,31.66
2019-06-26T04:32:07.572Z,31.61
2019-06-26T04:34:42.879Z,31.67
2019-06-26T04:37:18.308Z,31.59
2019-06-26T04:39:56.074Z,31.60
2019-06-26T04:42:34.007Z,31.59
2019-06-26T04:45:10.094Z,31.60
2019-06-26T04:47:45.258Z,31.57
2019-06-26T04:50:21.830Z,31.64
2019-06-26T04:52:57.671Z,31.58
2019-06-26T04:55:36.624Z,31.54
2019-06-26T04:58:12.102Z,31.60
2019-06-26T05:00:48.133Z,31.52
2019-06-26T05:03:24.407Z,31.53
2019-06-26T05:06:00.019Z,31.52
2019-06-26T05:08:36.166Z,31.50
2019-06-26T05:11:13.001Z,31.52
2019-06-26T05:13:52.201Z,30.99
2019-06-26T05:16:28.044Z,31.32
2019-06-26T05:19:06.979Z,31.39
2019-06-26T05:21:42.641Z,31.40
2019-06-26T05:24:18.625Z,31.35
2019-06-26T05:26:54.355Z,31.43
2019-06-26T05:29:30.388Z,31.46
2019-06-26T05:32:06.624Z,31.49
2019-06-26T05:34:41.995Z,31.40
2019-06-26T05:37:19.769Z,31.48
2019-06-26T05:39:56.942Z,31.42
2019-06-26T05:42:35.566Z,31.33
2019-06-26T05:45:12.182Z,31.29
2019-06-26T05:47:48.788Z,31.39
2019-06-26T05:50:25.334Z,31.40
2019-06-26T05:53:01.596Z,31.38
2019-06-26T05:55:37.345Z,31.51
2019-06-26T05:58:13.480Z,31.40
2019-06-26T06:00:50.206Z,31.42
2019-06-26T06:03:27.017Z,31.41
2019-06-26T06:06:03.249Z,31.42
2019-06-26T06:08:39.805Z,31.42
2019-06-26T06:11:14.352Z,31.53
2019-06-26T06:13:51.614Z,31.52
2019-06-26T06:16:46.385Z,31.54
2019-06-26T06:19:11.525Z,31.59
2019-06-26T06:21:47.620Z,31.47
2019-06-26T06:24:24.758Z,31.46
2019-06-26T06:27:01.061Z,31.54
2019-06-26T06:29:37.978Z,31.53
2019-06-26T06:32:14.616Z,31.44
2019-06-26T06:34:51.574Z,31.37
2019-06-26T06:37:28.466Z,31.37
2019-06-26T06:40:05.807Z,31.29
2019-06-26T06:42:42.962Z,31.33
2019-06-26T06:45:20.224Z,31.29
2019-06-26T06:47:56.783Z,31.44
2019-06-26T06:50:33.830Z,31.69
2019-06-26T06:53:10.401Z,31.76
2019-06-26T06:55:44.973Z,31.46
2019-06-26T06:58:22.616Z,31.43
2019-06-26T07:00:59.517Z,31.68
2019-06-26T07:03:36.549Z,31.32
2019-06-26T07:06:13.970Z,31.68
2019-06-26T07:08:50.941Z,31.54
2019-06-26T07:11:27.804Z,31.27
2019-06-26T07:14:05.429Z,31.59
2019-06-26T07:16:41.387Z,31.54
2019-06-26T07:19:17.095Z,31.61
2019-06-26T07:21:56.078Z,31.66
2019-06-26T07:24:34.990Z,31.70
2019-06-26T07:27:11.721Z,31.57
2019-06-26T07:29:49.258Z,31.62
2019-06-26T07:32:26.299Z,31.63
2019-06-26T07:35:02.469Z,31.44
2019-06-26T07:37:40.688Z,31.49
2019-06-26T07:40:16.177Z,31.59
2019-06-26T07:42:50.507Z,31.25
2019-06-26T07:45:27.214Z,30.92
2019-06-26T07:48:02.694Z,31.41
2019-06-26T07:50:37.506Z,31.34
2019-06-26T07:53:13.993Z,30.93
2019-06-26T07:55:49.972Z,31.19
2019-06-26T07:58:26.536Z,31.05
2019-06-26T08:01:02.977Z,31.24
2019-06-26T08:03:38.722Z,31.17
2019-06-26T08:06:13.273Z,31.03
2019-06-26T08:08:48.053Z,30.56
2019-06-26T08:11:23.027Z,31.21
2019-06-26T08:13:58.214Z,31.02
2019-06-26T08:16:35.444Z,30.97
2019-06-26T08:19:11.141Z,31.18
2019-06-26T08:21:46.854Z,31.18
2019-06-26T08:24:22.893Z,31.13
2019-06-26T08:26:58.275Z,31.05
2019-06-26T08:29:34.373Z,31.02
2019-06-26T08:32:10.730Z,30.90
2019-06-26T08:34:46.053Z,30.89
2019-06-26T08:37:46.420Z,30.88
2019-06-26T08:40:51.437Z,30.77
2019-06-26T08:43:58.706Z,30.87
2019-06-26T08:46:44.623Z,30.98
2019-06-26T08:49:42.098Z,31.05
2019-06-26T08:52:19.557Z,30.46
2019-06-26T08:54:59.613Z,30.81
2019-06-26T08:57:43.886Z,30.81
2019-06-26T09:00:28.386Z,30.84
2019-06-26T09:03:08.710Z,31.05
2019-06-26T09:05:48.838Z,30.56
2019-06-26T09:08:29.387Z,31.16
2019-06-26T09:11:05.959Z,31.29
2019-06-26T09:13:45.915Z,31.43
2019-06-26T09:16:43.850Z,31.85
2019-06-26T09:19:42.557Z,31.72
2019-06-26T09:22:49.773Z,31.84
2019-06-26T09:26:12.926Z,32.07
2019-06-26T09:29:00.243Z,32.27
2019-06-26T09:31:42.782Z,32.30
2019-06-26T09:34:39.601Z,32.41
2019-06-26T09:37:22.595Z,32.30
2019-06-26T09:39:59.814Z,32.43
2019-06-26T09:42:36.321Z,32.42
2019-06-26T09:45:12.757Z,32.02
2019-06-26T09:47:50.467Z,32.20
2019-06-26T09:50:33.351Z,32.28
2019-06-26T09:53:14.587Z,32.27
2019-06-26T09:55:53.904Z,32.36
2019-06-26T09:58:38.140Z,32.27
2019-06-26T10:01:17.935Z,32.31
2019-06-26T10:04:06.076Z,32.28
2019-06-26T10:06:43.550Z,32.25
2019-06-26T10:09:25.190Z,32.28
2019-06-26T10:12:07.794Z,32.21
2019-06-26T10:14:48.094Z,32.75
2019-06-26T10:17:26.172Z,32.41
2019-06-26T10:20:03.245Z,32.37
2019-06-26T10:22:40.579Z,33.53
2019-06-26T10:25:20.099Z,32.63
2019-06-26T10:27:58.945Z,33.26
2019-06-26T10:30:38.379Z,33.17
2019-06-26T10:33:17.967Z,33.20
2019-06-26T10:35:55.702Z,33.51
2019-06-26T10:38:36.333Z,33.71
2019-06-26T10:41:14.393Z,33.41
2019-06-26T10:43:50.923Z,33.17
2019-06-26T10:46:28.685Z,33.33
2019-06-26T10:49:25.887Z,33.26
2019-06-26T10:51:50.152Z,32.73
2019-06-26T10:54:26.978Z,33.01
2019-06-26T10:57:11.083Z,32.60
2019-06-26T10:59:47.900Z,32.34
2019-06-26T11:02:24.308Z,32.34
2019-06-26T11:05:01.873Z,31.87
2019-06-26T11:07:41.708Z,32.20
2019-06-26T11:10:20.616Z,32.30
2019-06-26T11:12:57.440Z,31.93
2019-06-26T11:15:34.425Z,31.74
2019-06-26T11:18:10.487Z,31.85
2019-06-26T11:20:50.795Z,31.93
2019-06-26T11:23:27.386Z,32.07
2019-06-26T11:26:04.224Z,31.94
2019-06-26T11:28:41.518Z,31.88
2019-06-26T11:31:17.906Z,32.06
2019-06-26T11:33:54.272Z,31.37
2019-06-26T11:36:31.983Z,31.81
2019-06-26T11:39:09.032Z,31.76
2019-06-26T11:41:46.694Z,31.91
2019-06-26T11:44:21.494Z,31.94
2019-06-26T11:46:59.855Z,31.78
2019-06-26T11:49:37.202Z,32.36
2019-06-26T11:52:13.779Z,31.72
2019-06-26T11:55:01.885Z,31.62
2019-06-26T11:57:28.750Z,31.67
2019-06-26T12:00:07.471Z,31.58
2019-06-26T12:02:45.182Z,31.72
2019-06-26T12:05:22.153Z,31.68
2019-06-26T12:07:59.424Z,31.53
2019-06-26T12:10:37.011Z,31.70
2019-06-26T12:13:13.373Z,31.72
2019-06-26T12:15:49.704Z,31.72
2019-06-26T12:18:25.102Z,31.74
2019-06-26T12:21:02.275Z,31.64
2019-06-26T12:23:38.519Z,31.78
2019-06-26T12:26:15.116Z,31.78
2019-06-26T12:28:50.008Z,31.84
2019-06-26T12:31:29.739Z,31.75
2019-06-26T12:34:07.090Z,31.70
2019-06-26T12:36:43.161Z,31.71
2019-06-26T12:39:19.998Z,31.76
2019-06-26T12:41:55.207Z,31.76
2019-06-26T12:44:33.599Z,31.62
2019-06-26T12:47:12.021Z,31.63
2019-06-26T12:49:47.173Z,31.60
2019-06-26T12:52:24.450Z,31.12
2019-06-26T12:55:00.796Z,31.46
2019-06-26T12:57:36.751Z,31.83
2019-06-26T13:00:13.019Z,31.70
2019-06-26T13:02:48.545Z,31.65
2019-06-26T13:05:22.827Z,31.67
2019-06-26T13:07:59.278Z,31.74
2019-06-26T13:10:48.502Z,31.82
2019-06-26T13:13:12.209Z,31.80
2019-06-26T13:15:50.918Z,31.77
2019-06-26T13:18:30.006Z,31.72
2019-06-26T13:21:05.391Z,31.78
2019-06-26T13:23:41.370Z,31.20
2019-06-26T13:26:19.258Z,31.61
2019-06-26T13:28:54.922Z,31.79
2019-06-26T13:31:30.048Z,31.79
2019-06-26T13:34:08.044Z,31.74
2019-06-26T13:36:45.090Z,31.83
2019-06-26T13:39:21.027Z,31.85
2019-06-26T13:42:04.349Z,31.80
2019-06-26T13:44:40.555Z,31.82
2019-06-26T13:47:17.067Z,31.81
2019-06-26T13:49:51.861Z,31.83
2019-06-26T13:52:29.760Z,31.96
2019-06-26T13:55:07.886Z,32.00
2019-06-26T13:57:48.770Z,32.08
2019-06-26T14:00:23.980Z,32.10
2019-06-26T14:03:01.616Z,32.34
2019-06-26T14:05:37.902Z,32.46
2019-06-26T14:08:15.470Z,32.76
2019-06-26T14:10:51.335Z,32.88
2019-06-26T14:13:26.835Z,33.01
2019-06-26T14:16:06.380Z,33.12
2019-06-26T14:18:43.862Z,33.05
2019-06-26T14:21:25.978Z,33.27
2019-06-26T14:23:58.800Z,33.29
2019-06-26T14:26:34.371Z,33.35
2019-06-26T14:29:20.378Z,33.41
2019-06-26T14:31:56.991Z,33.49
2019-06-26T14:34:35.960Z,33.43
2019-06-26T14:37:10.136Z,33.49
2019-06-26T14:39:44.508Z,33.49
2019-06-26T14:42:21.314Z,34.32
2019-06-26T14:44:55.347Z,33.82
2019-06-26T14:47:30.287Z,33.80
2019-06-26T14:50:04.946Z,33.83
2019-06-26T14:52:39.750Z,33.93
2019-06-26T14:55:15.114Z,33.85
2019-06-26T14:57:49.869Z,33.91
2019-06-26T15:00:24.908Z,33.98
2019-06-26T15:02:59.296Z,34.01
2019-06-26T15:05:35.732Z,33.87
2019-06-26T15:08:10.541Z,33.86
2019-06-26T15:10:44.983Z,33.91
2019-06-26T15:13:19.694Z,34.08
2019-06-26T15:15:55.020Z,34.08
2019-06-26T15:18:30.253Z,34.10
2019-06-26T15:21:07.498Z,34.10
2019-06-26T15:23:42.425Z,34.21
2019-06-26T15:26:18.152Z,34.12
2019-06-26T15:28:56.517Z,34.25
2019-06-26T15:31:33.093Z,34.15
2019-06-26T15:34:09.692Z,34.28
2019-06-26T15:36:45.740Z,34.29
2019-06-26T15:39:22.567Z,34.29
2019-06-26T15:41:58.095Z,34.08
2019-06-26T15:44:35.308Z,34.39
2019-06-26T15:47:12.891Z,34.35
2019-06-26T15:49:49.770Z,34.49
2019-06-26T15:52:26.044Z,37.63
2019-06-26T15:55:05.530Z,38.19
2019-06-26T15:57:42.995Z,38.18
2019-06-26T16:00:20.622Z,38.54
2019-06-26T16:02:56.893Z,37.87
2019-06-26T16:05:34.248Z,38.40
2019-06-26T16:08:12.323Z,38.34
2019-06-26T16:10:52.352Z,38.76
2019-06-26T16:13:26.818Z,37.80
2019-06-26T16:16:01.334Z,37.64
2019-06-26T16:18:44.288Z,37.59
2019-06-26T16:21:18.282Z,37.27
2019-06-26T16:23:52.922Z,37.56
2019-06-26T16:26:27.264Z,37.45
2019-06-26T16:29:01.351Z,37.46
2019-06-26T16:31:35.564Z,37.72
2019-06-26T16:34:09.689Z,37.80
2019-06-26T16:36:44.059Z,37.52
2019-06-26T16:39:18.537Z,37.31
2019-06-26T16:41:52.757Z,37.06
2019-06-26T16:44:27.590Z,37.00
2019-06-26T16:47:02.065Z,37.38
2019-06-26T16:49:37.493Z,36.89
2019-06-26T16:52:13.322Z,37.37
2019-06-26T16:54:49.331Z,37.01
2019-06-26T16:57:24.111Z,36.65
2019-06-26T17:00:09.360Z,36.54
2019-06-26T17:02:36.394Z,36.86
2019-06-26T17:05:12.820Z,36.41
2019-06-26T17:07:50.502Z,36.64
2019-06-26T17:10:25.356Z,36.60
2019-06-26T17:12:59.806Z,36.38
2019-06-26T17:15:34.111Z,36.34
2019-06-26T17:18:08.893Z,36.28
2019-06-26T17:20:43.824Z,36.08
2019-06-26T17:23:20.470Z,36.19
2019-06-26T17:25:54.882Z,36.20
2019-06-26T17:28:29.837Z,36.02
2019-06-26T17:31:05.057Z,36.11
2019-06-26T17:33:40.438Z,36.25
2019-06-26T17:36:15.154Z,36.22
2019-06-26T17:38:49.287Z,36.21
2019-06-26T17:41:23.614Z,36.20
2019-06-26T17:43:57.873Z,36.09
2019-06-26T17:46:33.734Z,36.10
2019-06-26T17:49:08.321Z,36.06
2019-06-26T17:51:43.327Z,36.17
2019-06-26T17:54:18.213Z,36.03
2019-06-26T17:56:53.081Z,36.05
2019-06-26T17:59:27.943Z,36.16
2019-06-26T18:02:03.050Z,36.16
2019-06-26T18:04:38.375Z,36.05
2019-06-26T18:07:14.571Z,36.30
2019-06-26T18:09:49.182Z,36.26
2019-06-26T18:12:23.678Z,36.35
2019-06-26T18:14:58.456Z,36.19
2019-06-26T18:17:34.492Z,36.18
2019-06-26T18:20:09.970Z,36.14
2019-06-26T18:22:46.013Z,36.17
2019-06-26T18:25:20.357Z,36.25
2019-06-26T18:27:55.680Z,36.11
2019-06-26T18:30:30.699Z,36.13
2019-06-26T18:33:05.566Z,36.00
2019-06-26T18:35:41.412Z,36.00
2019-06-26T18:38:16.129Z,35.99
2019-06-26T18:40:51.399Z,36.11
2019-06-26T18:43:26.712Z,36.27
2019-06-26T18:46:02.036Z,36.08
2019-06-26T18:48:37.511Z,36.13
2019-06-26T18:51:12.820Z,36.13
2019-06-26T18:53:53.556Z,36.18
2019-06-26T18:56:26.087Z,36.02
2019-06-26T18:59:01.584Z,36.00
2019-06-26T19:01:37.318Z,36.04
2019-06-26T19:04:13.600Z,36.07
2019-06-26T19:06:48.895Z,36.04
2019-06-26T19:09:24.332Z,36.46
2019-06-26T19:11:59.982Z,36.27
2019-06-26T19:14:35.518Z,35.98
2019-06-26T19:17:10.983Z,36.11
2019-06-26T19:19:47.344Z,36.08
2019-06-26T19:22:22.953Z,36.20
2019-06-26T19:24:58.890Z,36.28
2019-06-26T19:27:34.352Z,36.20
2019-06-26T19:30:10.997Z,36.25
2019-06-26T19:32:46.489Z,36.18
2019-06-26T19:35:22.820Z,36.08
2019-06-26T19:37:59.562Z,36.20
2019-06-26T19:40:35.869Z,36.09
2019-06-26T19:43:12.047Z,36.41
2019-06-26T19:45:47.725Z,36.30
2019-06-26T19:48:23.545Z,36.59
2019-06-26T19:50:58.995Z,36.31
2019-06-26T19:53:35.541Z,36.35
2019-06-26T19:56:11.219Z,36.28
2019-06-26T19:58:46.258Z,36.34
2019-06-26T20:01:21.315Z,36.40
2019-06-26T20:03:56.059Z,36.25
2019-06-26T20:06:30.352Z,36.21
2019-06-26T20:09:07.065Z,36.29
2019-06-26T20:12:00.125Z,36.39
2019-06-26T20:14:35.058Z,36.22
2019-06-26T20:17:09.518Z,36.15
2019-06-26T20:19:43.874Z,36.23
2019-06-26T20:22:18.463Z,36.17
2019-06-26T20:24:57.174Z,36.02
2019-06-26T20:27:30.886Z,36.10
2019-06-26T20:30:09.370Z,36.12
2019-06-26T20:32:44.003Z,36.10
2019-06-26T20:35:19.573Z,36.12
2019-06-26T20:37:54.124Z,36.21
2019-06-26T20:40:28.963Z,36.15
2019-06-26T20:43:02.962Z,36.13
2019-06-26T20:45:37.330Z,36.10
2019-06-26T20:48:11.736Z,36.07
2019-06-26T20:50:46.862Z,35.95
2019-06-26T20:53:22.330Z,35.81
2019-06-26T20:55:59.659Z,35.91
2019-06-26T20:58:34.105Z,35.89
2019-06-26T21:01:09.506Z,35.91
2019-06-26T21:03:45.527Z,35.91
2019-06-26T21:06:20.867Z,35.85
2019-06-26T21:08:57.730Z,35.89
2019-06-26T21:11:33.313Z,35.86
2019-06-26T21:14:08.812Z,35.88
2019-06-26T21:16:44.422Z,35.90
2019-06-26T21:19:21.837Z,35.94
2019-06-26T21:21:56.468Z,35.88
2019-06-26T21:24:31.302Z,35.82
2019-06-26T21:27:06.865Z,35.89
2019-06-26T21:29:43.834Z,35.82
2019-06-26T21:32:18.618Z,35.86
2019-06-26T21:34:54.581Z,35.88
2019-06-26T21:37:28.688Z,35.92
2019-06-26T21:40:05.316Z,35.92
2019-06-26T21:42:42.606Z,36.00
2019-06-26T21:45:20.836Z,35.95
2019-06-26T21:47:57.261Z,36.05
2019-06-26T21:50:32.310Z,36.05
2019-06-26T21:53:10.079Z,36.14
2019-06-26T21:55:45.859Z,36.14
2019-06-26T21:58:39.209Z,35.36
2019-06-26T22:01:34.433Z,35.88
2019-06-26T22:04:27.842Z,36.01
2019-06-26T22:09:40.805Z,35.88
2019-06-26T22:12:16.359Z,36.04
2019-06-26T22:14:51.177Z,36.05
2019-06-26T22:17:27.381Z,36.04
2019-06-26T22:20:02.755Z,35.97
2019-06-26T22:22:37.825Z,35.99
2019-06-26T22:25:12.790Z,36.01
2019-06-26T22:27:48.059Z,36.01
2019-06-26T22:30:22.778Z,36.03
2019-06-26T22:32:57.265Z,36.14
2019-06-26T22:35:32.523Z,35.96
2019-06-26T22:38:07.731Z,35.92
2019-06-26T22:40:41.947Z,35.91
2019-06-26T22:43:16.143Z,35.97
2019-06-26T22:45:51.210Z,35.92
2019-06-26T22:48:26.294Z,36.01
2019-06-26T22:51:01.214Z,36.00
2019-06-26T22:53:35.733Z,35.93
2019-06-26T22:56:10.718Z,36.04
2019-06-26T22:58:46.991Z,35.97
2019-06-26T23:01:21.983Z,35.98
2019-06-26T23:03:57.393Z,36.00
2019-06-26T23:06:32.299Z,36.02
2019-06-26T23:09:08.446Z,36.16
2019-06-26T23:11:43.604Z,35.78
2019-06-26T23:14:19.847Z,35.81
2019-06-26T23:16:55.636Z,36.24
2019-06-26T23:19:33.565Z,36.24
2019-06-26T23:22:10.895Z,36.21
2019-06-26T23:24:48.458Z,36.29
2019-06-26T23:27:23.506Z,36.22
2019-06-26T23:29:58.601Z,36.39
2019-06-26T23:32:34.774Z,36.38
2019-06-26T23:35:10.032Z,36.34
2019-06-26T23:37:45.169Z,36.42
2019-06-26T23:40:20.376Z,36.28
2019-06-26T23:55:59.363Z,36.31
2019-06-26T23:58:33.861Z,36.27
